Time;durP1;ratioP1;P1;durP2;ratioP2;P2;SDS_P1;SDS_P2;PMS_P1;PMS_P2;Temp;Humidity;BMP_temperature;BMP_pressure;BME280_temperature;BME280_humidity;BME280_pressure;Samples;Min_cycle;Max_cycle;Signal;HPM_P1;HPM_P2
2023/09/20 04:00:56;;;;;;;1.70;1.60;;;15.60;97.30;;;;;;5776690;23;1060795;-93
2023/09/20 04:03:21;;;;;;;1.53;1.47;;;15.60;97.30;;;;;;5006439;28;20181;-91
2023/09/20 04:05:47;;;;;;;2.30;1.93;;;15.60;97.30;;;;;;5001027;28;20421;-90
2023/09/20 04:08:16;;;;;;;3.23;1.23;;;15.60;97.30;;;;;;5005488;28;20177;-90
2023/09/20 04:10:42;;;;;;;1.50;1.40;;;15.50;97.30;;;;;;5003489;28;20854;-91
2023/09/20 04:13:08;;;;;;;3.23;1.03;;;15.50;97.30;;;;;;4990134;28;20460;-90
2023/09/20 04:15:33;;;;;;;1.43;1.33;;;15.50;97.30;;;;;;4992017;28;20177;-90
2023/09/20 04:17:59;;;;;;;1.60;1.07;;;15.50;97.30;;;;;;4990040;28;20512;-90
2023/09/20 04:20:25;;;;;;;1.13;1.03;;;15.50;97.30;;;;;;4993423;28;20173;-91
2023/09/20 04:22:52;;;;;;;1.30;1.20;;;15.40;97.30;;;;;;4993693;28;20507;-90
2023/09/20 04:25:18;;;;;;;1.23;1.10;;;15.40;97.30;;;;;;4992658;28;20269;-91
2023/09/20 04:27:44;;;;;;;1.00;0.90;;;15.40;97.30;;;;;;4987591;28;20507;-91
2023/09/20 04:30:13;;;;;;;1.43;1.23;;;15.40;97.30;;;;;;4988455;28;20268;-91
2023/09/20 04:32:40;;;;;;;1.10;0.97;;;15.30;97.30;;;;;;4990324;28;20436;-90
2023/09/20 04:35:06;;;;;;;1.20;1.10;;;15.30;97.30;;;;;;4991160;28;20429;-92
2023/09/20 04:37:32;;;;;;;1.23;1.13;;;15.30;97.30;;;;;;4991670;28;20535;-90
2023/09/20 04:39:57;;;;;;;1.10;1.00;;;15.30;97.30;;;;;;4987060;28;20187;-91
2023/09/20 04:42:23;;;;;;;0.90;0.80;;;15.20;97.30;;;;;;4994096;28;20209;-90
2023/09/20 04:44:51;;;;;;;1.93;1.20;;;15.20;97.30;;;;;;4989650;28;20197;-91
2023/09/20 04:47:18;;;;;;;1.17;1.07;;;15.20;97.30;;;;;;4985250;28;20241;-91
2023/09/20 04:49:44;;;;;;;1.00;0.90;;;15.20;97.30;;;;;;4988109;28;20418;-90
2023/09/20 04:52:11;;;;;;;1.00;0.90;;;15.20;97.30;;;;;;4993130;28;20644;-91
2023/09/20 04:54:37;;;;;;;2.40;1.77;;;15.20;97.30;;;;;;4990228;28;20568;-91
2023/09/20 04:57:04;;;;;;;1.20;1.00;;;15.20;97.30;;;;;;4988277;28;20789;-91
2023/09/20 04:59:31;;;;;;;1.50;0.93;;;15.20;97.30;;;;;;4988292;28;20559;-90
2023/09/20 05:01:56;;;;;;;2.70;2.33;;;15.20;97.30;;;;;;4991490;28;20480;-90
2023/09/20 05:04:22;;;;;;;1.40;1.23;;;15.10;97.30;;;;;;4993142;28;20432;-91
2023/09/20 05:06:48;;;;;;;1.57;1.50;;;15.10;97.30;;;;;;4978473;28;20197;-91
2023/09/20 05:09:13;;;;;;;1.30;1.20;;;15.10;97.30;;;;;;4987677;28;20178;-91
2023/09/20 05:11:39;;;;;;;1.17;1.07;;;15.10;97.30;;;;;;4992462;28;20692;-90
2023/09/20 05:14:07;;;;;;;2.80;1.23;;;15.10;97.30;;;;;;4980075;28;20265;-90
2023/09/20 05:16:33;;;;;;;1.20;1.10;;;15.00;97.30;;;;;;4984943;28;20273;-91
2023/09/20 05:18:59;;;;;;;1.00;0.90;;;15.00;97.30;;;;;;4991183;28;20728;-90
2023/09/20 05:21:25;;;;;;;1.00;0.90;;;15.00;97.30;;;;;;4987818;28;20198;-91
2023/09/20 05:23:50;;;;;;;1.00;0.90;;;15.00;97.30;;;;;;4989189;28;20444;-91
2023/09/20 05:26:18;;;;;;;1.57;1.10;;;15.00;97.30;;;;;;4992529;28;20186;-90
2023/09/20 05:28:44;;;;;;;1.57;1.47;;;15.00;97.30;;;;;;4980359;28;20327;-92
2023/09/20 05:31:10;;;;;;;1.20;1.10;;;15.00;97.30;;;;;;4980630;28;20453;-90
2023/09/20 05:33:35;;;;;;;1.20;1.10;;;15.00;97.30;;;;;;4987172;28;20245;-89
2023/09/20 05:36:01;;;;;;;1.20;1.10;;;15.00;97.30;;;;;;4991529;28;20213;-91
2023/09/20 05:38:26;;;;;;;1.13;1.03;;;15.00;97.30;;;;;;4991508;28;20184;-92
2023/09/20 05:40:53;;;;;;;1.60;1.50;;;15.00;97.30;;;;;;4990671;28;20206;-92
2023/09/20 05:43:18;;;;;;;0.80;0.80;;;15.00;97.30;;;;;;5005653;28;21074;-92
2023/09/20 05:45:44;;;;;;;1.10;0.90;;;15.00;97.30;;;;;;4983148;28;20795;-91
2023/09/20 05:48:10;;;;;;;1.63;1.53;;;15.00;97.30;;;;;;4991083;28;20784;-91
2023/09/20 05:50:36;;;;;;;2.10;1.13;;;15.00;97.30;;;;;;4986175;28;20616;-91
2023/09/20 05:53:06;;;;;;;1.77;1.67;;;15.10;97.30;;;;;;4986905;28;20197;-91
2023/09/20 05:55:35;;;;;;;1.23;1.13;;;15.10;97.30;;;;;;4986668;28;20413;-90
2023/09/20 05:58:00;;;;;;;0.93;0.83;;;15.20;97.30;;;;;;4987180;28;20434;-91
2023/09/20 06:00:26;;;;;;;1.93;1.20;;;15.20;97.30;;;;;;4989330;28;20425;-91
2023/09/20 06:02:51;;;;;;;1.10;1.00;;;15.30;97.30;;;;;;4988972;28;20221;-91
2023/09/20 06:05:19;;;;;;;1.10;1.00;;;15.30;97.30;;;;;;4989662;28;20257;-91
2023/09/20 06:07:44;;;;;;;1.27;1.20;;;15.40;97.30;;;;;;4989029;28;20188;-91
2023/09/20 06:10:11;;;;;;;1.00;0.90;;;15.40;97.30;;;;;;4985848;28;20421;-90
2023/09/20 06:12:37;;;;;;;3.03;1.10;;;15.40;97.30;;;;;;4987796;28;20555;-91
2023/09/20 06:15:04;;;;;;;1.27;1.17;;;15.50;97.30;;;;;;4988319;28;20528;-91
2023/09/20 06:20:07;;;;;;;1.27;1.10;;;15.50;97.30;;;;;;4969856;28;20484;-87
2023/09/20 06:22:33;;;;;;;1.30;1.23;;;15.60;97.30;;;;;;4977727;28;20425;-90
2023/09/20 06:24:58;;;;;;;1.03;0.93;;;15.60;97.30;;;;;;4978941;28;20524;-87
2023/09/20 06:27:25;;;;;;;1.00;0.90;;;15.70;97.30;;;;;;4988973;28;20289;-88
2023/09/20 06:29:51;;;;;;;1.20;1.10;;;15.70;97.30;;;;;;4992958;28;20218;-89
2023/09/20 06:32:17;;;;;;;1.73;1.63;;;15.80;97.30;;;;;;4991471;28;20425;-89
2023/09/20 06:34:44;;;;;;;0.90;0.80;;;15.90;97.30;;;;;;4995535;28;20296;-88
2023/09/20 06:37:10;;;;;;;1.20;1.10;;;16.00;97.30;;;;;;4996654;28;20515;-87
2023/09/20 06:39:36;;;;;;;1.03;0.93;;;16.10;97.30;;;;;;4984615;28;20529;-87
2023/09/20 06:42:07;;;;;;;1.17;0.90;;;16.20;97.30;;;;;;4986670;28;20182;-88
2023/09/20 06:44:38;;;;;;;3.10;1.60;;;16.30;97.30;;;;;;4988285;28;20425;-88
2023/09/20 06:47:06;;;;;;;1.40;1.20;;;16.40;97.30;;;;;;4983648;28;20923;-87
2023/09/20 06:49:32;;;;;;;1.00;0.90;;;16.60;97.30;;;;;;4993142;28;20447;-91
2023/09/20 06:52:01;;;;;;;1.60;1.50;;;16.70;97.30;;;;;;4989466;28;20422;-87
2023/09/20 06:54:28;;;;;;;0.97;0.87;;;16.80;97.30;;;;;;4990905;28;20679;-89
2023/09/20 06:56:57;;;;;;;1.23;1.13;;;17.00;97.30;;;;;;4996223;28;20421;-90
2023/09/20 06:59:23;;;;;;;1.67;1.63;;;17.10;97.30;;;;;;4993620;28;20436;-87
2023/09/20 07:01:53;;;;;;;0.90;0.80;;;17.20;97.30;;;;;;4995331;28;20432;-90
2023/09/20 07:04:19;;;;;;;1.50;1.40;;;17.40;97.30;;;;;;4989963;28;20464;-90
2023/09/20 07:06:45;;;;;;;0.90;0.80;;;17.50;97.30;;;;;;4990585;28;20516;-87
2023/09/20 07:09:10;;;;;;;0.90;0.80;;;17.70;97.30;;;;;;4991539;28;20193;-87
2023/09/20 07:11:37;;;;;;;1.80;0.80;;;17.80;97.30;;;;;;4990375;28;20184;-87
2023/09/20 07:14:05;;;;;;;1.10;1.00;;;17.90;97.30;;;;;;4992367;28;20198;-87
2023/09/20 07:16:41;;;;;;;1.30;1.20;;;18.00;97.30;;;;;;4986013;28;20412;-87
2023/09/20 07:19:06;;;;;;;1.10;1.00;;;18.10;97.30;;;;;;5005870;28;20498;-84
2023/09/20 07:21:37;;;;;;;1.10;1.03;;;18.20;97.30;;;;;;4998310;28;20942;-85
2023/09/20 07:24:06;;;;;;;0.87;0.80;;;18.30;97.30;;;;;;4996753;28;20174;-88
2023/09/20 07:26:35;;;;;;;2.00;1.50;;;18.40;97.30;;;;;;5001640;28;20428;-87
2023/09/20 07:29:05;;;;;;;1.03;0.93;;;18.50;97.30;;;;;;5010369;28;20472;-85
2023/09/20 07:31:36;;;;;;;2.07;1.30;;;18.60;97.30;;;;;;5024994;28;20436;-90
2023/09/20 07:34:04;;;;;;;1.00;0.90;;;18.70;97.30;;;;;;5010084;28;20451;-87
2023/09/20 07:36:33;;;;;;;1.17;1.07;;;18.70;97.30;;;;;;4996270;28;20425;-87
2023/09/20 07:38:59;;;;;;;0.97;0.87;;;18.80;97.30;;;;;;4996324;28;20456;-88
2023/09/20 07:41:25;;;;;;;1.00;0.90;;;18.80;97.30;;;;;;5004214;28;20474;-86
2023/09/20 07:43:54;;;;;;;0.90;0.80;;;18.90;97.30;;;;;;5014199;28;20795;-87
2023/09/20 07:46:23;;;;;;;2.00;1.20;;;19.00;97.30;;;;;;5015672;28;20196;-87
2023/09/20 07:48:50;;;;;;;1.07;1.00;;;19.00;97.30;;;;;;5015896;28;20991;-87
2023/09/20 07:51:20;;;;;;;0.80;0.80;;;19.10;97.30;;;;;;5011072;28;20938;-87
2023/09/20 07:53:49;;;;;;;1.00;0.90;;;19.10;97.30;;;;;;5011972;28;21145;-88
2023/09/20 07:56:15;;;;;;;5.13;1.73;;;19.20;97.20;;;;;;5013362;28;20459;-86
2023/09/20 07:58:40;;;;;;;0.80;0.80;;;19.20;97.30;;;;;;5008980;28;20472;-87
2023/09/20 08:03:59;;;;;;;1.30;1.20;;;19.40;97.30;;;;;;5003578;28;20685;-86
2023/09/20 08:06:32;;;;;;;1.10;1.00;;;19.60;96.70;;;;;;5009944;28;20421;-88
2023/09/20 08:08:58;;;;;;;1.03;1.00;;;19.60;95.80;;;;;;4997419;28;20447;-85
2023/09/20 08:11:27;;;;;;;0.90;0.80;;;19.70;95.50;;;;;;5009537;28;20412;-87
2023/09/20 08:13:54;;;;;;;1.00;0.90;;;19.70;95.70;;;;;;5015692;28;20296;-85
2023/09/20 08:16:24;;;;;;;0.87;0.83;;;19.70;95.60;;;;;;5001761;28;20419;-87
2023/09/20 08:19:20;;;;;;;0.93;0.87;;;19.80;95.50;;;;;;5007845;28;20580;-87
2023/09/20 08:21:46;;;;;;;1.20;1.00;;;19.80;95.60;;;;;;5014547;28;20419;-86
2023/09/20 09:00:21;;;;;;;3.67;2.30;;;21.00;93.30;;;;;;4993962;28;20451;-87
2023/09/20 09:02:58;;;;;;;3.90;1.73;;;21.10;93.70;;;;;;4995212;28;20412;-88
2023/09/20 09:05:27;;;;;;;1.00;0.90;;;21.10;93.10;;;;;;4992867;28;20431;-88
2023/09/20 09:08:01;;;;;;;1.70;1.60;;;21.20;92.80;;;;;;4991732;28;20441;-88
2023/09/20 09:10:27;;;;;;;0.80;0.80;;;21.30;92.40;;;;;;4993087;28;20420;-87
2023/09/20 09:12:53;;;;;;;1.00;0.90;;;21.30;92.70;;;;;;4995642;28;20924;-87
2023/09/20 09:15:18;;;;;;;0.80;0.80;;;21.30;92.40;;;;;;4994462;28;20507;-87
2023/09/20 09:17:47;;;;;;;2.20;1.30;;;21.30;91.70;;;;;;4994008;28;20186;-87
2023/09/20 09:20:14;;;;;;;0.90;0.80;;;21.40;92.40;;;;;;4995341;28;20185;-86
2023/09/20 09:22:41;;;;;;;3.47;1.30;;;21.40;91.80;;;;;;4996006;28;20508;-88
2023/09/20 09:25:40;;;;;;;0.80;0.70;;;21.40;91.90;;;;;;4995547;28;20508;-86
2023/09/20 09:28:06;;;;;;;1.90;1.03;;;21.50;92.00;;;;;;4980263;28;20892;-86
2023/09/20 09:30:32;;;;;;;1.10;1.00;;;21.60;92.10;;;;;;4993240;28;20984;-87
2023/09/20 09:32:57;;;;;;;0.90;0.80;;;21.70;91.50;;;;;;4991700;28;20652;-88
2023/09/20 09:35:23;;;;;;;0.83;0.77;;;21.90;91.00;;;;;;4991665;28;20440;-86
2023/09/20 09:37:50;;;;;;;1.20;1.10;;;22.00;91.00;;;;;;4993105;28;20269;-87
2023/09/20 09:40:18;;;;;;;1.93;0.90;;;22.20;90.50;;;;;;4994710;28;20182;-87
2023/09/20 09:42:49;;;;;;;1.10;1.00;;;22.30;91.00;;;;;;4994901;28;20428;-86
2023/09/20 09:45:30;;;;;;;0.90;0.80;;;22.40;90.80;;;;;;4993720;28;20806;-88
2023/09/20 09:47:59;;;;;;;1.30;1.10;;;22.50;88.60;;;;;;4995049;28;20925;-88
2023/09/20 09:50:28;;;;;;;0.80;0.80;;;22.60;89.40;;;;;;4994220;28;20428;-88
2023/09/20 09:52:53;;;;;;;0.90;0.80;;;22.80;88.20;;;;;;4993733;28;20530;-88
2023/09/20 09:55:20;;;;;;;1.00;0.90;;;22.80;88.60;;;;;;4994805;28;20926;-88
2023/09/20 09:57:46;;;;;;;0.80;0.80;;;22.90;88.30;;;;;;4993229;28;20185;-86
2023/09/20 10:00:12;;;;;;;1.00;0.90;;;23.00;88.80;;;;;;4993237;28;20425;-87
2023/09/20 10:02:41;;;;;;;1.40;1.10;;;23.10;87.90;;;;;;4993199;28;20540;-87
2023/09/20 10:05:12;;;;;;;1.70;1.40;;;23.20;88.00;;;;;;4993259;28;20923;-87
2023/09/20 10:07:40;;;;;;;1.37;1.07;;;23.30;87.70;;;;;;4990231;28;20429;-86
2023/09/20 10:10:13;;;;;;;1.87;1.37;;;23.40;88.60;;;;;;4990260;28;20432;-86
2023/09/20 10:12:40;;;;;;;0.93;0.83;;;23.50;86.20;;;;;;4993875;28;20550;-87
2023/09/20 10:15:08;;;;;;;1.50;1.43;;;23.60;87.60;;;;;;4992965;28;20524;-90
2023/09/20 10:17:34;;;;;;;2.20;1.07;;;23.70;86.50;;;;;;5001158;28;20471;-86
2023/09/20 10:20:07;;;;;;;1.37;1.07;;;23.80;85.70;;;;;;5002082;28;20459;-85
2023/09/20 10:22:40;;;;;;;2.30;1.63;;;23.80;86.00;;;;;;4993141;28;20494;-87
2023/09/20 10:25:36;;;;;;;1.63;0.83;;;23.80;86.00;;;;;;5000032;28;20428;-87
2023/09/20 10:28:09;;;;;;;1.10;1.00;;;23.80;86.50;;;;;;4999097;28;20491;-87
2023/09/20 10:31:03;;;;;;;1.50;1.10;;;23.90;85.00;;;;;;4995714;28;20503;-86
2023/09/20 10:33:55;;;;;;;1.43;1.33;;;23.90;85.20;;;;;;5006875;28;20467;-87
2023/09/20 10:36:28;;;;;;;3.03;1.37;;;23.90;85.40;;;;;;5006353;28;20479;-86
2023/09/20 10:39:17;;;;;;;0.80;0.70;;;23.90;85.30;;;;;;4998112;28;20448;-86
2023/09/20 10:41:47;;;;;;;1.33;0.70;;;23.90;86.00;;;;;;4999200;28;20975;-87
2023/09/20 10:44:29;;;;;;;1.30;1.20;;;24.00;86.60;;;;;;4992965;28;20417;-89
2023/09/20 10:46:58;;;;;;;1.10;1.00;;;24.10;87.00;;;;;;4996237;28;20515;-86
2023/09/20 10:49:51;;;;;;;0.77;0.73;;;24.20;86.30;;;;;;4990741;28;20441;-87
2023/09/20 10:52:34;;;;;;;0.90;0.80;;;24.40;85.80;;;;;;4987296;28;20443;-85
2023/09/20 10:55:24;;;;;;;1.00;0.90;;;24.50;86.00;;;;;;4994980;28;20994;-87
2023/09/20 10:57:50;;;;;;;1.00;0.90;;;24.60;83.90;;;;;;4990250;28;20425;-86
2023/09/20 11:00:30;;;;;;;1.03;0.97;;;24.60;83.20;;;;;;4991912;28;20413;-86
2023/09/20 11:02:56;;;;;;;1.93;1.07;;;24.60;83.10;;;;;;4990136;28;20947;-87
2023/09/20 11:05:23;;;;;;;0.90;0.80;;;24.70;83.40;;;;;;4991351;28;20433;-87
2023/09/20 11:07:50;;;;;;;1.53;1.30;;;24.70;83.10;;;;;;4985393;28;20427;-87
2023/09/20 11:10:19;;;;;;;1.17;1.10;;;24.80;83.70;;;;;;4991634;28;20523;-88
2023/09/20 11:12:45;;;;;;;0.80;0.70;;;24.80;83.70;;;;;;4997273;28;20451;-86
2023/09/20 11:15:13;;;;;;;1.13;1.03;;;24.90;83.10;;;;;;5000299;28;20495;-87
2023/09/20 11:17:38;;;;;;;7.93;1.20;;;24.90;82.90;;;;;;5000128;28;20182;-87
2023/09/20 11:20:06;;;;;;;0.87;0.83;;;25.00;83.00;;;;;;4998164;28;20432;-86
2023/09/20 11:22:32;;;;;;;0.90;0.90;;;25.00;83.70;;;;;;5003451;28;20217;-86
2023/09/20 11:25:00;;;;;;;1.17;1.00;;;25.00;83.50;;;;;;5002210;28;20459;-88
2023/09/20 11:27:26;;;;;;;0.87;0.83;;;25.10;83.30;;;;;;5000889;28;20193;-88
2023/09/20 11:29:52;;;;;;;1.03;0.90;;;25.20;82.20;;;;;;5004168;28;20667;-88
2023/09/20 11:32:22;;;;;;;0.90;0.80;;;25.10;83.30;;;;;;4994277;28;20194;-89
2023/09/20 11:34:51;;;;;;;0.90;0.80;;;25.20;82.10;;;;;;5005491;28;20270;-88
2023/09/20 11:37:19;;;;;;;0.90;0.80;;;25.30;81.40;;;;;;5003282;28;20451;-88
2023/09/20 11:39:49;;;;;;;0.90;0.80;;;25.30;82.20;;;;;;5000834;28;20505;-89
2023/09/20 11:42:30;;;;;;;3.63;1.00;;;25.40;83.30;;;;;;5016804;28;20404;-90
2023/09/20 11:45:03;;;;;;;1.47;1.30;;;25.50;82.40;;;;;;5007404;28;20404;-91
2023/09/20 11:47:34;;;;;;;2.50;1.00;;;25.70;82.00;;;;;;5003848;28;20420;-88
2023/09/20 11:50:00;;;;;;;1.33;1.23;;;25.70;81.70;;;;;;5003827;28;20468;-87
2023/09/20 11:52:27;;;;;;;1.40;0.90;;;25.80;82.00;;;;;;5008535;28;20462;-87
2023/09/20 11:54:58;;;;;;;1.07;0.90;;;25.90;80.00;;;;;;4999771;28;20468;-89
2023/09/20 11:57:27;;;;;;;0.90;0.90;;;25.90;81.70;;;;;;4993896;28;20413;-86
2023/09/20 11:59:54;;;;;;;0.80;0.70;;;26.00;80.90;;;;;;4991366;28;20503;-89
2023/09/20 12:02:19;;;;;;;1.10;1.00;;;26.00;80.50;;;;;;4992920;28;20840;-88
2023/09/20 12:04:47;;;;;;;2.40;1.30;;;26.10;81.90;;;;;;4996833;28;20539;-88
2023/09/20 12:07:13;;;;;;;1.00;0.90;;;26.10;80.20;;;;;;4990855;28;20255;-88
2023/09/20 12:09:39;;;;;;;1.33;1.23;;;26.20;79.40;;;;;;5001818;28;20550;-89
2023/09/20 12:12:05;;;;;;;0.90;0.80;;;26.20;81.00;;;;;;5000602;28;20428;-88
2023/09/20 12:14:34;;;;;;;1.43;0.90;;;26.40;80.10;;;;;;5000102;28;20489;-88
2023/09/20 12:17:00;;;;;;;2.00;1.20;;;26.50;80.70;;;;;;5000200;28;20562;-87
2023/09/20 12:19:28;;;;;;;1.10;1.00;;;26.60;79.40;;;;;;4998007;28;20489;-86
2023/09/20 12:21:54;;;;;;;1.53;1.40;;;26.60;78.80;;;;;;5000820;28;20845;-88
2023/09/20 12:24:21;;;;;;;9.37;1.70;;;26.50;78.30;;;;;;4993763;28;20474;-86
2023/09/20 12:26:48;;;;;;;1.27;1.23;;;26.50;80.20;;;;;;4993001;28;20441;-88
2023/09/20 12:29:16;;;;;;;0.90;0.70;;;26.50;78.40;;;;;;4998569;28;20447;-88
2023/09/20 12:31:41;;;;;;;3.40;1.50;;;26.30;79.30;;;;;;4989880;28;20467;-88
2023/09/20 12:34:07;;;;;;;0.80;0.73;;;26.30;78.60;;;;;;4991019;28;20469;-90
2023/09/20 12:36:35;;;;;;;1.00;0.90;;;26.30;78.60;;;;;;4992387;28;20619;-87
2023/09/20 12:39:01;;;;;;;0.90;0.80;;;26.40;79.30;;;;;;4986249;28;20222;-89
2023/09/20 12:41:27;;;;;;;0.70;0.70;;;26.50;79.00;;;;;;4993242;28;20463;-86
2023/09/20 12:43:57;;;;;;;1.53;1.07;;;26.40;78.30;;;;;;5004932;28;20431;-87
2023/09/20 12:46:24;;;;;;;1.63;1.10;;;26.30;79.40;;;;;;4999360;28;20427;-85
2023/09/20 12:48:50;;;;;;;0.90;0.83;;;26.10;78.50;;;;;;4995491;28;20449;-85
2023/09/20 12:51:15;;;;;;;1.60;1.50;;;25.70;78.80;;;;;;4996165;28;20425;-87
2023/09/20 12:53:46;;;;;;;1.40;1.03;;;25.30;79.90;;;;;;4992079;28;20205;-87
2023/09/20 12:56:14;;;;;;;6.93;1.90;;;25.00;80.10;;;;;;4991895;28;20197;-88
2023/09/20 12:58:41;;;;;;;3.33;1.00;;;24.70;81.30;;;;;;4998454;28;20463;-87
2023/09/20 13:01:09;;;;;;;2.20;1.43;;;24.50;81.70;;;;;;4991810;28;20421;-87
2023/09/20 13:03:40;;;;;;;1.43;1.10;;;24.40;82.00;;;;;;5001504;28;21012;-88
2023/09/20 13:06:09;;;;;;;1.43;1.13;;;24.30;82.40;;;;;;4994340;28;20435;-89
2023/09/20 13:08:38;;;;;;;0.90;0.80;;;24.20;82.00;;;;;;4998317;28;20437;-87
2023/09/20 13:11:10;;;;;;;1.30;1.20;;;24.20;82.70;;;;;;5004687;28;20511;-88
2023/09/20 13:13:40;;;;;;;2.00;1.63;;;24.10;82.30;;;;;;5001260;28;21008;-88
2023/09/20 13:16:14;;;;;;;1.07;1.00;;;24.10;82.80;;;;;;4995532;28;20418;-88
2023/09/20 13:18:39;;;;;;;1.33;1.23;;;24.10;83.40;;;;;;4992865;28;20484;-87
2023/09/20 13:21:06;;;;;;;1.10;1.10;;;24.20;82.70;;;;;;4991462;28;20926;-87
2023/09/20 13:23:32;;;;;;;0.70;0.70;;;24.20;82.90;;;;;;4998095;28;20562;-88
2023/09/20 13:25:59;;;;;;;0.90;0.80;;;24.30;83.40;;;;;;4997629;28;20921;-88
2023/09/20 13:28:25;;;;;;;1.37;1.07;;;24.30;83.40;;;;;;4990985;28;20445;-87
2023/09/20 13:30:51;;;;;;;1.87;1.77;;;24.30;83.50;;;;;;5002694;28;20467;-88
2023/09/20 13:33:17;;;;;;;0.90;0.87;;;24.30;83.80;;;;;;4991652;28;20189;-88
2023/09/20 13:35:45;;;;;;;1.00;0.90;;;24.30;84.10;;;;;;4995737;28;20490;-88
2023/09/20 13:38:16;;;;;;;1.37;1.27;;;24.20;83.70;;;;;;5000332;28;20535;-88
2023/09/20 13:40:42;;;;;;;1.67;1.10;;;24.20;84.40;;;;;;5000143;28;20492;-87
2023/09/20 13:43:13;;;;;;;1.13;1.03;;;24.30;85.10;;;;;;4993374;28;20429;-88
2023/09/20 13:45:41;;;;;;;3.13;1.40;;;24.20;84.20;;;;;;4992010;28;20643;-88
2023/09/20 13:48:07;;;;;;;1.00;1.00;;;24.20;84.10;;;;;;4999384;28;20511;-88
2023/09/20 13:50:33;;;;;;;1.00;0.90;;;24.30;84.40;;;;;;4994776;28;20497;-88
2023/09/20 13:53:00;;;;;;;1.00;0.90;;;24.20;84.20;;;;;;4992711;28;20882;-88
2023/09/20 13:55:25;;;;;;;1.10;1.00;;;24.30;85.00;;;;;;4998178;28;20528;-89
2023/09/20 13:57:51;;;;;;;0.90;0.80;;;24.40;84.40;;;;;;4993547;28;20480;-88
2023/09/20 14:00:17;;;;;;;3.20;0.87;;;24.60;85.40;;;;;;4999794;28;20189;-88
2023/09/20 14:02:47;;;;;;;1.23;1.10;;;25.00;84.60;;;;;;4991355;28;20262;-82
2023/09/20 14:05:14;;;;;;;2.37;1.23;;;25.30;83.60;;;;;;4990723;28;20447;-86
2023/09/20 14:07:50;;;;;;;1.10;1.03;;;25.70;82.10;;;;;;5001751;28;20428;-86
2023/09/20 14:10:17;;;;;;;6.83;1.87;;;26.00;81.30;;;;;;5002998;28;20482;-87
2023/09/20 14:12:47;;;;;;;1.63;1.30;;;26.20;81.40;;;;;;5002712;28;20756;-87
2023/09/20 14:15:19;;;;;;;1.10;1.00;;;26.50;80.30;;;;;;4995366;28;20958;-86
2023/09/20 14:17:49;;;;;;;2.40;1.80;;;26.70;81.10;;;;;;4990372;28;20425;-87
2023/09/20 14:20:15;;;;;;;1.20;1.10;;;26.90;79.30;;;;;;4990152;28;20425;-87
2023/09/20 14:22:47;;;;;;;5.83;1.10;;;27.00;80.50;;;;;;5002348;28;20433;-87
2023/09/20 14:25:17;;;;;;;0.90;0.80;;;27.20;80.50;;;;;;5003120;28;20483;-87
2023/09/20 14:27:50;;;;;;;5.83;1.17;;;27.30;78.70;;;;;;4990673;28;20429;-87
2023/09/20 14:30:18;;;;;;;1.47;1.37;;;27.30;79.30;;;;;;4991803;28;20428;-86
2023/09/20 14:32:46;;;;;;;3.43;1.40;;;27.30;78.00;;;;;;4996755;28;20436;-86
2023/09/20 14:35:12;;;;;;;1.63;1.23;;;27.10;77.90;;;;;;4996061;28;20478;-86
2023/09/20 14:37:43;;;;;;;2.17;1.83;;;27.10;78.90;;;;;;4996233;28;20429;-86
2023/09/20 14:40:18;;;;;;;1.10;1.10;;;27.10;78.40;;;;;;4996352;28;20435;-86
2023/09/20 14:42:45;;;;;;;1.00;0.90;;;27.30;79.00;;;;;;4995609;28;20428;-86
2023/09/20 14:45:22;;;;;;;1.40;1.13;;;27.40;79.60;;;;;;4993820;28;20433;-86
2023/09/20 14:47:53;;;;;;;2.30;1.13;;;27.50;80.00;;;;;;4990372;28;20428;-87
2023/09/20 14:50:19;;;;;;;1.90;1.40;;;27.60;78.90;;;;;;5003654;28;20430;-87
2023/09/20 14:52:46;;;;;;;1.00;0.90;;;27.70;79.40;;;;;;4993904;28;20425;-87
2023/09/20 14:55:19;;;;;;;1.23;0.90;;;27.80;79.20;;;;;;4991822;28;20468;-87
2023/09/20 14:57:48;;;;;;;1.50;1.10;;;27.80;79.00;;;;;;4992256;28;20421;-87
2023/09/20 15:00:18;;;;;;;2.00;1.23;;;27.80;78.50;;;;;;5002700;28;21065;-87
2023/09/20 15:02:54;;;;;;;0.93;0.83;;;27.80;78.40;;;;;;5006663;28;20605;-87
2023/09/20 15:05:20;;;;;;;0.87;0.77;;;27.90;79.60;;;;;;4991375;28;20452;-87
2023/09/20 15:07:48;;;;;;;1.50;1.00;;;27.90;79.20;;;;;;4990342;28;20417;-87
2023/09/20 15:10:16;;;;;;;2.90;1.20;;;28.00;79.00;;;;;;4997756;28;20427;-88
2023/09/20 15:12:48;;;;;;;2.97;1.63;;;28.00;77.80;;;;;;4994638;28;20503;-87
2023/09/20 15:15:14;;;;;;;1.03;0.93;;;28.00;78.40;;;;;;4991613;28;20523;-87
2023/09/20 15:17:40;;;;;;;0.90;0.80;;;28.00;78.30;;;;;;4996689;28;20429;-86
2023/09/20 15:20:07;;;;;;;1.00;0.90;;;28.00;78.90;;;;;;4996956;28;20209;-86
2023/09/20 15:22:33;;;;;;;1.10;0.90;;;27.90;78.10;;;;;;5001437;28;20425;-87
2023/09/20 15:25:00;;;;;;;1.00;0.90;;;27.90;78.80;;;;;;4991104;28;20417;-87
2023/09/20 15:27:29;;;;;;;0.93;0.83;;;27.90;78.60;;;;;;4995608;28;20989;-88
2023/09/20 15:30:06;;;;;;;5.10;1.83;;;27.80;79.30;;;;;;5001636;28;20452;-86
2023/09/20 15:32:32;;;;;;;1.63;1.40;;;27.80;78.30;;;;;;4989467;28;20443;-89
2023/09/20 15:34:58;;;;;;;0.87;0.80;;;27.90;79.10;;;;;;4991105;28;20475;-88
2023/09/20 15:37:29;;;;;;;0.97;0.87;;;28.00;79.30;;;;;;4996728;28;20451;-87
2023/09/20 15:39:54;;;;;;;1.00;1.00;;;28.10;79.50;;;;;;4991998;28;20827;-87
2023/09/20 15:42:21;;;;;;;1.43;1.00;;;28.20;78.80;;;;;;4996430;28;20413;-87
2023/09/20 15:44:49;;;;;;;1.23;1.20;;;28.20;79.10;;;;;;4991497;28;20178;-87
2023/09/20 15:47:15;;;;;;;1.43;1.03;;;28.30;78.50;;;;;;4997808;28;20789;-88
2023/09/20 15:49:41;;;;;;;1.53;1.00;;;28.40;78.40;;;;;;4997231;28;20528;-87
2023/09/20 15:52:07;;;;;;;1.30;1.20;;;28.40;78.20;;;;;;4995836;28;20441;-87
2023/09/20 15:54:33;;;;;;;1.47;1.10;;;28.50;78.20;;;;;;4998293;28;20835;-88
2023/09/20 15:56:59;;;;;;;2.00;1.33;;;28.50;78.50;;;;;;5000223;28;20228;-87
2023/09/20 15:59:31;;;;;;;1.00;0.90;;;28.40;78.60;;;;;;4992943;28;20448;-87
2023/09/20 16:01:57;;;;;;;0.80;0.70;;;28.20;79.10;;;;;;4996673;28;20180;-87
2023/09/20 16:04:22;;;;;;;1.00;1.00;;;28.00;79.10;;;;;;4997712;28;20793;-87
2023/09/20 16:06:48;;;;;;;1.67;1.47;;;27.70;79.90;;;;;;4996043;28;20196;-87
2023/09/20 16:09:13;;;;;;;7.03;1.00;;;27.40;81.50;;;;;;4998855;28;20208;-88
2023/09/20 16:11:39;;;;;;;0.80;0.70;;;27.10;80.20;;;;;;4995591;28;20193;-87
2023/09/20 16:14:07;;;;;;;1.07;1.00;;;26.90;79.80;;;;;;4997626;28;20206;-87
2023/09/20 16:16:34;;;;;;;1.17;0.87;;;26.70;81.20;;;;;;4994751;28;20174;-87
2023/09/20 16:19:00;;;;;;;1.03;0.90;;;26.50;81.30;;;;;;4995380;28;20489;-83
2023/09/20 16:21:26;;;;;;;0.90;0.80;;;26.40;82.10;;;;;;4993927;28;20452;-84
2023/09/20 16:23:52;;;;;;;2.67;1.43;;;26.30;83.00;;;;;;5003321;28;20420;-83
2023/09/20 16:26:17;;;;;;;0.97;0.87;;;26.20;82.90;;;;;;5002950;28;20536;-84
2023/09/20 16:28:43;;;;;;;1.03;0.87;;;26.10;82.90;;;;;;5001051;28;20269;-85
2023/09/20 16:31:09;;;;;;;0.90;0.80;;;26.10;83.00;;;;;;4997283;28;20182;-84
2023/09/20 16:33:35;;;;;;;0.90;0.80;;;26.10;83.30;;;;;;4995181;28;20538;-89
2023/09/20 16:36:01;;;;;;;0.70;0.70;;;26.10;83.90;;;;;;4994388;28;20181;-87
2023/09/20 16:38:29;;;;;;;1.57;1.10;;;26.00;84.20;;;;;;4989404;28;20525;-88
2023/09/20 16:40:58;;;;;;;1.03;0.90;;;25.90;84.30;;;;;;4992191;28;20453;-87
2023/09/20 16:43:28;;;;;;;0.80;0.70;;;25.80;85.00;;;;;;4991943;28;20742;-88
2023/09/20 16:46:01;;;;;;;1.67;1.50;;;25.60;85.90;;;;;;4991636;28;20510;-87
2023/09/20 16:48:29;;;;;;;0.83;0.83;;;25.40;86.30;;;;;;4991475;28;20468;-87
2023/09/20 16:50:59;;;;;;;0.90;0.90;;;25.20;86.70;;;;;;4986755;28;20409;-85
2023/09/20 16:53:30;;;;;;;1.70;1.67;;;25.10;87.00;;;;;;4998007;28;20947;-84
2023/09/20 16:55:58;;;;;;;1.33;1.17;;;24.80;87.50;;;;;;4992453;28;20472;-87
2023/09/20 16:58:26;;;;;;;1.17;1.07;;;24.60;87.90;;;;;;4992291;28;20526;-87
2023/09/20 17:00:51;;;;;;;1.20;1.10;;;24.40;88.70;;;;;;5012720;28;20451;-87
2023/09/20 17:03:17;;;;;;;1.17;1.10;;;24.10;89.10;;;;;;5002380;28;20428;-90
2023/09/20 17:05:43;;;;;;;2.67;1.17;;;23.90;89.80;;;;;;4995318;28;20247;-87
2023/09/20 17:08:10;;;;;;;1.23;1.13;;;23.70;90.50;;;;;;4999611;28;20257;-88
2023/09/20 17:10:36;;;;;;;2.23;2.03;;;23.50;91.10;;;;;;5001415;28;20425;-89
2023/09/20 17:13:02;;;;;;;0.90;0.80;;;23.30;91.80;;;;;;5014396;28;20513;-89
2023/09/20 17:15:28;;;;;;;3.83;1.60;;;23.20;92.10;;;;;;4997968;28;20201;-88
2023/09/20 17:17:55;;;;;;;1.00;0.90;;;23.00;92.50;;;;;;4993534;28;20499;-88
2023/09/20 17:20:20;;;;;;;1.00;0.90;;;22.80;93.10;;;;;;4997760;28;20194;-88
2023/09/20 17:22:46;;;;;;;1.37;1.13;;;22.70;93.30;;;;;;4997875;28;20421;-88
2023/09/20 17:25:12;;;;;;;0.90;0.90;;;22.50;93.60;;;;;;4994213;28;20178;-88
2023/09/20 17:27:39;;;;;;;2.60;1.50;;;22.40;94.00;;;;;;5001508;28;20248;-89
2023/09/20 17:30:12;;;;;;;1.77;0.90;;;22.30;94.00;;;;;;5006479;28;20448;-88
2023/09/20 17:32:42;;;;;;;0.93;0.90;;;22.20;94.30;;;;;;5001877;28;20503;-89
2023/09/20 17:35:11;;;;;;;1.20;1.10;;;22.10;94.40;;;;;;4995661;28;20519;-89